Terminal Aerodrome Forecast
Issued by NWS

Home | Current Version | Previous Version | Text Only | Print | Product List | Glossary On
Versions: 1 2 3 4 5 6 7 8 9 10 11 12 13 14 15 16
000
FTUS46 KMTR 242300
TAFOAK
TAF
KOAK 242335Z 2500/2606 27014KT P6SM OVC012
     FM250700 26009KT P6SM OVC010
     FM252000 27014KT P6SM BKN015=

USA.gov is the U.S. government's official web portal to all federal, state and local government web resources and services.